CYOWCYND

Guest
Details From CYOW - Ottawa Macdonald Cartier Intl
To CYND - GATINEAU
Flight Number -
Tags generated
Created
Modified
Stats Distance 13 nm / 24 km
Max Altitude 0 ft / 0 m
Waypoints 2
Social Downloads 0
Likes 0
Share VATSIM

Download

Looking for another format? Having issues loading an existing format? Contact us
Advertisement - Login to hide

Notes

Basic altitude profile: - Ascent Rate: 2500ft/min - Ascent Speed: 250kts - Cruise Altitude: 35000ft - Cruise Speed: 420kts - Descent Rate: 1500ft/min - Descent Speed: 250kts Options: - Use NATs: yes - Use PACOTS: yes - Use low airways: yes - Use high airways: yes

Route

CYOW CYND

ID Type Via Altitude Latitude Longitude Leg Dist Tot Dist Heading (true) Name
O CYOW APT - 0 ft / 0 m 45.32282˚ -75.67144˚ - 0 nm - Ottawa Macdonald Cartier Intl
O CYND APT - 0 ft / 0 m 45.52169˚ -75.56359˚ 12 nm 12 nm 21° / 21° GATINEAU

Altitude Profile

Advertisement - Login to hide

CYOW

Details ICAO CYOW (YOW)
Name Ottawa Macdonald Cartier Intl
Region Canada
Timezone America/Toronto (UTC-5.0)
Stats Elevation 374 ft / 114 m (AMSL)
Location 45.322817° -75.671438°
Runways 3
Magnetic Variation 13.247° W

METAR

CYOW 121200Z 05013G20KT 1SM R32/P6000FT/U R07/P6000FT/U -SN OVC010 M11/M13 A2964 RMK SN6SC2 /S06/ SLP047

Decode

TAF

TAF CYOW 121138Z 1212/1312 06015KT 11/2SM -SN VV012 TEMPO 1212/1216 3/4SM -SN VV008 FM122000 01012KT 4SM -SN OVC015 TEMPO 1220/1305 2SM -SN BECMG 1222/1224 31015KT RMK NXT FCST BY 121500Z

Decode

Departure Runways

ID Width Length Bearing (true) Bearing (mag) Surface Threshold Offset Overrun Length
04 75 ft / 23 m 3,304 ft / 1,007 m 25.50° 38.75° Asphalt 0 ft / 0 m 0 ft / 0 m
07 200 ft / 61 m 8,011 ft / 2,442 m 57.16° 70.41° Asphalt 0 ft / 0 m 150 ft / 46 m
14 200 ft / 61 m 9,978 ft / 3,041 m 126.44° 139.69° Asphalt 0 ft / 0 m 150 ft / 46 m
22 75 ft / 23 m 3,304 ft / 1,007 m 205.50° 218.75° Asphalt 0 ft / 0 m 0 ft / 0 m
25 200 ft / 61 m 8,011 ft / 2,442 m 237.18° 250.43° Asphalt 0 ft / 0 m 155 ft / 47 m
32 200 ft / 61 m 9,978 ft / 3,041 m 306.46° 319.71° Asphalt 0 ft / 0 m 150 ft / 46 m

CYND

Details ICAO CYND (YND)
Name GATINEAU
Region Canada
Timezone America/Montreal (UTC-5.0)
Stats Elevation 211 ft / 64 m (AMSL)
Location 45.521693° -75.563587°
Runways 1
Magnetic Variation 13.369° W

METAR

CYND 121200Z 06010KT 1SM -SN OVC013 M10/M12 A2967 RMK SN4SC4 /S05 AFT 00UTC/ SLP053

Decode

TAF

Not found

Destination Runways

ID Width Length Bearing (true) Bearing (mag) Surface Threshold Offset Overrun Length
09 150 ft / 46 m 5,983 ft / 1,824 m 75.36° 88.73° Asphalt 0 ft / 0 m 200 ft / 61 m
27 150 ft / 46 m 5,983 ft / 1,824 m 255.37° 268.74° Asphalt 0 ft / 0 m 200 ft / 61 m

Popular Alternatives